Accueil
METAR-TAF:

METAR-TAF

Aéroports :

Aéroport international de Kunming Changshui

Kunming, Chine

latitude: 25-01N, longitude: 102-41E, altitude: 1892 m

Observation

Le bulletin a été fait il y a 52 minutes, à 19:00 UTC
Vent 8 kt de sud/sud-ouest
Température 12°C
Humidité 88%
Pression 1024 hPa
Visibilité 10 km ou plus
pas de nuages en-dessous de 1500 mètres et pas de cumulonimbus.

METAR: ZPPP 191900Z 21004MPS CAVOK 12/10 Q1024 NOSIG

Heure: 03:52 (19:52 UTC)

Prévision

Le bulletin a été fait il y a 6 heures et 49 minutes, à 13:03 UTC
Prévision valable du 19 à 18 UTC au 20 à 18 UTC
Vent 10 kt de sud-ouest
Visibilité 10 km ou plus
Nuages épars à une hauteur de 2600 ft

TAF: ZPPP 191303Z 1918/2018 22005MPS 9999 SCT026 TX21/2008Z TN11/1923Z

Observations et prévisions météorologiques de plus de 4000 aéroports (messages METAR et TAF).

Les stations disponibles sont représentées par des disques jaunes et rouges sur la carte.

Passer la souris dessus pour voir le nom de la station.

Cliquer dessus pour voir les observations et prévisions météorologiques.

Pour changer de carte: cliquez sur les boutons verts avec une croix noire pour zoomer, sur le bouton vert avec un tiret pour effectuer un zoom arrière, ou sur les flèches vertes pour les cartes adjacentes.


METAR-TAF: